sensor_id;sensor_type;location;lat;lon;timestamp;P1;durP1;ratioP1;P2;durP2;ratioP2
69953;SDS011;57276;51.364;12.376;2022-09-13T00:02:22;7.60;;;5.83;;
69953;SDS011;57276;51.364;12.376;2022-09-13T00:08:23;9.70;;;6.40;;
69953;SDS011;57276;51.364;12.376;2022-09-13T00:14:25;8.43;;;5.93;;
69953;SDS011;57276;51.364;12.376;2022-09-13T00:20:27;9.27;;;6.38;;
69953;SDS011;57276;51.364;12.376;2022-09-13T00:26:28;8.20;;;5.82;;
69953;SDS011;57276;51.364;12.376;2022-09-13T00:32:30;8.63;;;5.90;;
69953;SDS011;57276;51.364;12.376;2022-09-13T00:38:33;8.25;;;5.88;;
69953;SDS011;57276;51.364;12.376;2022-09-13T00:44:54;8.77;;;6.17;;
69953;SDS011;57276;51.364;12.376;2022-09-13T00:50:56;8.27;;;6.00;;
69953;SDS011;57276;51.364;12.376;2022-09-13T00:56:58;9.80;;;5.85;;
69953;SDS011;57276;51.364;12.376;2022-09-13T01:03:01;10.63;;;5.63;;
69953;SDS011;57276;51.364;12.376;2022-09-13T01:09:04;10.27;;;5.65;;
69953;SDS011;57276;51.364;12.376;2022-09-13T01:15:06;9.73;;;5.80;;
69953;SDS011;57276;51.364;12.376;2022-09-13T01:27:27;8.73;;;5.50;;
69953;SDS011;57276;51.364;12.376;2022-09-13T01:33:34;9.60;;;5.53;;
69953;SDS011;57276;51.364;12.376;2022-09-13T01:39:45;8.00;;;5.43;;
69953;SDS011;57276;51.364;12.376;2022-09-13T01:45:57;9.17;;;5.57;;
69953;SDS011;57276;51.364;12.376;2022-09-13T01:52:07;9.75;;;5.68;;
69953;SDS011;57276;51.364;12.376;2022-09-13T01:58:26;8.27;;;5.80;;
69953;SDS011;57276;51.364;12.376;2022-09-13T02:04:29;10.00;;;5.47;;
69953;SDS011;57276;51.364;12.376;2022-09-13T02:10:40;12.52;;;5.53;;
69953;SDS011;57276;51.364;12.376;2022-09-13T02:16:50;10.10;;;5.10;;
69953;SDS011;57276;51.364;12.376;2022-09-13T02:22:54;9.35;;;5.93;;
69953;SDS011;57276;51.364;12.376;2022-09-13T02:28:57;8.85;;;5.57;;
69953;SDS011;57276;51.364;12.376;2022-09-13T02:41:15;7.10;;;4.80;;
69953;SDS011;57276;51.364;12.376;2022-09-13T02:53:41;8.02;;;4.90;;
69953;SDS011;57276;51.364;12.376;2022-09-13T02:59:46;8.68;;;5.18;;
69953;SDS011;57276;51.364;12.376;2022-09-13T03:05:48;8.97;;;5.07;;
69953;SDS011;57276;51.364;12.376;2022-09-13T03:18:18;9.73;;;5.00;;
69953;SDS011;57276;51.364;12.376;2022-09-13T03:24:38;8.70;;;5.50;;
69953;SDS011;57276;51.364;12.376;2022-09-13T03:30:44;8.25;;;4.93;;
69953;SDS011;57276;51.364;12.376;2022-09-13T03:36:55;10.23;;;4.70;;
69953;SDS011;57276;51.364;12.376;2022-09-13T03:43:00;7.65;;;4.90;;
69953;SDS011;57276;51.364;12.376;2022-09-13T03:49:05;7.20;;;4.70;;
69953;SDS011;57276;51.364;12.376;2022-09-13T03:55:07;7.55;;;4.68;;
69953;SDS011;57276;51.364;12.376;2022-09-13T04:01:08;9.90;;;5.10;;
69953;SDS011;57276;51.364;12.376;2022-09-13T04:07:11;8.10;;;4.90;;
69953;SDS011;57276;51.364;12.376;2022-09-13T04:13:13;9.57;;;5.32;;
69953;SDS011;57276;51.364;12.376;2022-09-13T04:19:15;9.83;;;5.10;;
69953;SDS011;57276;51.364;12.376;2022-09-13T04:25:17;10.57;;;5.40;;
69953;SDS011;57276;51.364;12.376;2022-09-13T04:31:18;11.13;;;5.20;;
69953;SDS011;57276;51.364;12.376;2022-09-13T04:37:20;9.10;;;5.50;;
69953;SDS011;57276;51.364;12.376;2022-09-13T04:43:21;8.15;;;5.03;;
69953;SDS011;57276;51.364;12.376;2022-09-13T04:49:23;9.93;;;5.13;;
69953;SDS011;57276;51.364;12.376;2022-09-13T04:55:25;8.30;;;5.30;;
69953;SDS011;57276;51.364;12.376;2022-09-13T05:01:27;9.57;;;5.50;;
69953;SDS011;57276;51.364;12.376;2022-09-13T05:07:28;10.73;;;5.80;;
69953;SDS011;57276;51.364;12.376;2022-09-13T05:13:30;10.32;;;5.68;;
69953;SDS011;57276;51.364;12.376;2022-09-13T05:19:31;10.33;;;5.80;;
69953;SDS011;57276;51.364;12.376;2022-09-13T05:25:33;8.65;;;5.32;;
69953;SDS011;57276;51.364;12.376;2022-09-13T05:31:35;11.43;;;6.00;;
69953;SDS011;57276;51.364;12.376;2022-09-13T05:37:37;9.70;;;6.20;;
69953;SDS011;57276;51.364;12.376;2022-09-13T05:43:38;10.00;;;5.80;;
69953;SDS011;57276;51.364;12.376;2022-09-13T05:49:40;12.03;;;5.67;;
69953;SDS011;57276;51.364;12.376;2022-09-13T05:56:01;9.60;;;5.85;;
69953;SDS011;57276;51.364;12.376;2022-09-13T06:02:03;11.65;;;6.28;;
69953;SDS011;57276;51.364;12.376;2022-09-13T06:08:05;11.77;;;6.03;;
69953;SDS011;57276;51.364;12.376;2022-09-13T06:14:06;10.23;;;6.15;;
69953;SDS011;57276;51.364;12.376;2022-09-13T06:20:08;10.57;;;5.80;;
69953;SDS011;57276;51.364;12.376;2022-09-13T06:26:11;10.40;;;5.97;;
69953;SDS011;57276;51.364;12.376;2022-09-13T06:32:13;11.23;;;6.40;;
69953;SDS011;57276;51.364;12.376;2022-09-13T06:38:14;11.90;;;6.87;;
69953;SDS011;57276;51.364;12.376;2022-09-13T06:44:16;14.00;;;6.82;;
69953;SDS011;57276;51.364;12.376;2022-09-13T06:50:17;13.57;;;7.87;;
69953;SDS011;57276;51.364;12.376;2022-09-13T06:56:28;13.02;;;7.40;;
69953;SDS011;57276;51.364;12.376;2022-09-13T07:02:31;12.70;;;7.50;;
69953;SDS011;57276;51.364;12.376;2022-09-13T07:08:33;15.23;;;8.13;;
69953;SDS011;57276;51.364;12.376;2022-09-13T07:14:34;12.68;;;8.38;;
69953;SDS011;57276;51.364;12.376;2022-09-13T07:20:36;12.50;;;8.30;;
69953;SDS011;57276;51.364;12.376;2022-09-13T07:26:37;14.43;;;8.23;;
69953;SDS011;57276;51.364;12.376;2022-09-13T07:32:39;13.45;;;7.68;;
69953;SDS011;57276;51.364;12.376;2022-09-13T07:38:42;14.60;;;8.13;;
69953;SDS011;57276;51.364;12.376;2022-09-13T07:44:45;14.43;;;8.80;;
69953;SDS011;57276;51.364;12.376;2022-09-13T07:51:00;14.43;;;8.03;;
69953;SDS011;57276;51.364;12.376;2022-09-13T07:57:02;12.38;;;7.60;;
69953;SDS011;57276;51.364;12.376;2022-09-13T08:03:04;15.02;;;8.02;;
69953;SDS011;57276;51.364;12.376;2022-09-13T08:09:06;11.17;;;7.40;;
69953;SDS011;57276;51.364;12.376;2022-09-13T08:15:08;14.10;;;7.32;;
69953;SDS011;57276;51.364;12.376;2022-09-13T08:21:09;12.53;;;7.17;;
69953;SDS011;57276;51.364;12.376;2022-09-13T08:27:11;10.90;;;7.20;;
69953;SDS011;57276;51.364;12.376;2022-09-13T08:33:13;12.88;;;7.00;;
69953;SDS011;57276;51.364;12.376;2022-09-13T08:39:15;14.63;;;7.43;;
69953;SDS011;57276;51.364;12.376;2022-09-13T08:45:16;11.50;;;7.70;;
69953;SDS011;57276;51.364;12.376;2022-09-13T08:51:40;11.80;;;6.80;;
69953;SDS011;57276;51.364;12.376;2022-09-13T08:57:42;10.43;;;7.00;;
69953;SDS011;57276;51.364;12.376;2022-09-13T09:03:48;10.20;;;6.55;;
69953;SDS011;57276;51.364;12.376;2022-09-13T09:09:53;10.03;;;6.67;;
69953;SDS011;57276;51.364;12.376;2022-09-13T09:16:00;11.63;;;6.03;;
69953;SDS011;57276;51.364;12.376;2022-09-13T09:22:03;11.80;;;7.17;;
69953;SDS011;57276;51.364;12.376;2022-09-13T09:28:08;10.30;;;6.07;;
69953;SDS011;57276;51.364;12.376;2022-09-13T09:34:33;9.98;;;6.25;;
69953;SDS011;57276;51.364;12.376;2022-09-13T09:40:43;10.47;;;6.23;;
69953;SDS011;57276;51.364;12.376;2022-09-13T09:46:46;9.68;;;6.00;;
69953;SDS011;57276;51.364;12.376;2022-09-13T09:52:52;8.63;;;5.10;;
69953;SDS011;57276;51.364;12.376;2022-09-13T09:58:57;8.43;;;5.03;;
69953;SDS011;57276;51.364;12.376;2022-09-13T10:04:58;8.73;;;5.18;;
69953;SDS011;57276;51.364;12.376;2022-09-13T10:11:01;7.50;;;4.40;;
69953;SDS011;57276;51.364;12.376;2022-09-13T10:23:24;6.43;;;3.80;;
69953;SDS011;57276;51.364;12.376;2022-09-13T10:29:25;5.32;;;3.83;;
69953;SDS011;57276;51.364;12.376;2022-09-13T10:35:28;8.65;;;4.00;;
69953;SDS011;57276;51.364;12.376;2022-09-13T10:41:31;5.93;;;3.80;;
69953;SDS011;57276;51.364;12.376;2022-09-13T10:47:37;6.22;;;3.63;;
69953;SDS011;57276;51.364;12.376;2022-09-13T10:53:40;6.00;;;3.70;;
69953;SDS011;57276;51.364;12.376;2022-09-13T10:59:42;5.60;;;3.50;;
69953;SDS011;57276;51.364;12.376;2022-09-13T11:05:59;8.40;;;3.60;;
69953;SDS011;57276;51.364;12.376;2022-09-13T11:18:14;6.38;;;3.95;;
69953;SDS011;57276;51.364;12.376;2022-09-13T11:24:40;9.03;;;4.30;;
69953;SDS011;57276;51.364;12.376;2022-09-13T11:30:50;6.22;;;3.97;;
69953;SDS011;57276;51.364;12.376;2022-09-13T11:43:35;7.47;;;3.97;;
69953;SDS011;57276;51.364;12.376;2022-09-13T11:55:46;7.63;;;4.10;;
69953;SDS011;57276;51.364;12.376;2022-09-13T12:01:59;7.05;;;3.80;;
69953;SDS011;57276;51.364;12.376;2022-09-13T12:08:11;5.32;;;3.88;;
69953;SDS011;57276;51.364;12.376;2022-09-13T12:14:14;6.63;;;3.90;;
69953;SDS011;57276;51.364;12.376;2022-09-13T12:21:02;7.47;;;3.33;;
69953;SDS011;57276;51.364;12.376;2022-09-13T12:26:55;6.63;;;3.80;;
69953;SDS011;57276;51.364;12.376;2022-09-13T12:32:59;6.45;;;3.55;;
69953;SDS011;57276;51.364;12.376;2022-09-13T12:39:05;5.85;;;3.50;;
69953;SDS011;57276;51.364;12.376;2022-09-13T12:57:29;5.53;;;2.97;;
69953;SDS011;57276;51.364;12.376;2022-09-13T13:03:35;7.88;;;2.80;;
69953;SDS011;57276;51.364;12.376;2022-09-13T13:09:46;7.07;;;2.90;;
69953;SDS011;57276;51.364;12.376;2022-09-13T13:21:50;6.07;;;2.88;;
69953;SDS011;57276;51.364;12.376;2022-09-13T13:27:52;4.73;;;2.87;;
69953;SDS011;57276;51.364;12.376;2022-09-13T13:33:56;5.03;;;2.88;;
69953;SDS011;57276;51.364;12.376;2022-09-13T13:46:32;5.27;;;2.50;;
69953;SDS011;57276;51.364;12.376;2022-09-13T13:52:35;4.90;;;2.97;;
69953;SDS011;57276;51.364;12.376;2022-09-13T13:58:44;6.07;;;2.83;;
69953;SDS011;57276;51.364;12.376;2022-09-13T14:04:58;5.88;;;3.40;;
69953;SDS011;57276;51.364;12.376;2022-09-13T14:23:17;4.75;;;3.05;;
69953;SDS011;57276;51.364;12.376;2022-09-13T14:29:20;5.00;;;3.10;;
69953;SDS011;57276;51.364;12.376;2022-09-13T14:35:35;6.15;;;2.70;;
69953;SDS011;57276;51.364;12.376;2022-09-13T14:41:37;4.07;;;2.78;;
69953;SDS011;57276;51.364;12.376;2022-09-13T14:47:52;7.27;;;3.27;;
69953;SDS011;57276;51.364;12.376;2022-09-13T14:53:57;6.63;;;2.55;;
69953;SDS011;57276;51.364;12.376;2022-09-13T15:00:02;4.30;;;2.60;;
69953;SDS011;57276;51.364;12.376;2022-09-13T15:06:06;4.47;;;2.60;;
69953;SDS011;57276;51.364;12.376;2022-09-13T15:12:17;4.32;;;2.63;;
69953;SDS011;57276;51.364;12.376;2022-09-13T15:18:30;6.33;;;2.83;;
69953;SDS011;57276;51.364;12.376;2022-09-13T15:24:37;5.65;;;2.55;;
69953;SDS011;57276;51.364;12.376;2022-09-13T15:30:42;8.40;;;4.60;;
69953;SDS011;57276;51.364;12.376;2022-09-13T15:36:45;10.90;;;4.22;;
69953;SDS011;57276;51.364;12.376;2022-09-13T15:42:47;7.50;;;4.07;;
69953;SDS011;57276;51.364;12.376;2022-09-13T15:48:50;9.57;;;4.67;;
69953;SDS011;57276;51.364;12.376;2022-09-13T15:54:52;11.50;;;4.97;;
69953;SDS011;57276;51.364;12.376;2022-09-13T16:00:54;9.80;;;4.70;;
69953;SDS011;57276;51.364;12.376;2022-09-13T16:06:55;9.82;;;5.00;;
69953;SDS011;57276;51.364;12.376;2022-09-13T16:12:57;8.52;;;4.93;;
69953;SDS011;57276;51.364;12.376;2022-09-13T16:18:58;9.50;;;5.03;;
69953;SDS011;57276;51.364;12.376;2022-09-13T16:25:00;10.13;;;4.78;;
69953;SDS011;57276;51.364;12.376;2022-09-13T16:31:01;7.70;;;4.40;;
69953;SDS011;57276;51.364;12.376;2022-09-13T16:37:03;9.95;;;4.57;;
69953;SDS011;57276;51.364;12.376;2022-09-13T16:43:05;8.15;;;4.80;;
69953;SDS011;57276;51.364;12.376;2022-09-13T16:49:06;8.40;;;4.53;;
69953;SDS011;57276;51.364;12.376;2022-09-13T16:55:08;8.65;;;4.93;;
69953;SDS011;57276;51.364;12.376;2022-09-13T17:01:10;9.90;;;4.47;;
69953;SDS011;57276;51.364;12.376;2022-09-13T17:07:12;10.07;;;4.78;;
69953;SDS011;57276;51.364;12.376;2022-09-13T17:13:14;7.22;;;4.22;;
69953;SDS011;57276;51.364;12.376;2022-09-13T17:19:17;8.13;;;4.70;;
69953;SDS011;57276;51.364;12.376;2022-09-13T17:25:19;7.88;;;4.70;;
69953;SDS011;57276;51.364;12.376;2022-09-13T17:31:21;9.77;;;5.37;;
69953;SDS011;57276;51.364;12.376;2022-09-13T17:37:22;7.57;;;5.05;;
69953;SDS011;57276;51.364;12.376;2022-09-13T17:43:24;10.23;;;5.20;;
69953;SDS011;57276;51.364;12.376;2022-09-13T17:49:25;9.47;;;5.67;;
69953;SDS011;57276;51.364;12.376;2022-09-13T17:55:27;9.48;;;5.40;;
69953;SDS011;57276;51.364;12.376;2022-09-13T18:01:28;9.87;;;5.60;;
69953;SDS011;57276;51.364;12.376;2022-09-13T18:07:30;10.57;;;5.45;;
69953;SDS011;57276;51.364;12.376;2022-09-13T18:13:32;10.43;;;5.93;;
69953;SDS011;57276;51.364;12.376;2022-09-13T18:19:33;10.47;;;5.47;;
69953;SDS011;57276;51.364;12.376;2022-09-13T18:25:56;10.43;;;5.82;;
69953;SDS011;57276;51.364;12.376;2022-09-13T18:32:03;9.17;;;6.20;;
69953;SDS011;57276;51.364;12.376;2022-09-13T18:38:04;8.98;;;6.00;;
69953;SDS011;57276;51.364;12.376;2022-09-13T18:44:07;12.77;;;6.13;;
69953;SDS011;57276;51.364;12.376;2022-09-13T18:50:09;11.83;;;6.47;;
69953;SDS011;57276;51.364;12.376;2022-09-13T18:56:14;9.55;;;5.80;;
69953;SDS011;57276;51.364;12.376;2022-09-13T19:02:16;12.07;;;5.93;;
69953;SDS011;57276;51.364;12.376;2022-09-13T19:08:18;9.85;;;6.18;;
69953;SDS011;57276;51.364;12.376;2022-09-13T19:14:23;9.07;;;6.55;;
69953;SDS011;57276;51.364;12.376;2022-09-13T19:20:26;11.67;;;6.83;;
69953;SDS011;57276;51.364;12.376;2022-09-13T19:26:29;15.35;;;7.95;;
69953;SDS011;57276;51.364;12.376;2022-09-13T19:32:32;14.00;;;8.47;;
69953;SDS011;57276;51.364;12.376;2022-09-13T19:38:33;13.02;;;8.25;;
69953;SDS011;57276;51.364;12.376;2022-09-13T19:44:35;14.13;;;7.93;;
69953;SDS011;57276;51.364;12.376;2022-09-13T19:50:38;12.53;;;7.43;;
69953;SDS011;57276;51.364;12.376;2022-09-13T19:56:40;12.70;;;7.90;;
69953;SDS011;57276;51.364;12.376;2022-09-13T20:02:43;12.07;;;7.83;;
69953;SDS011;57276;51.364;12.376;2022-09-13T20:08:48;11.20;;;7.85;;
69953;SDS011;57276;51.364;12.376;2022-09-13T20:14:49;14.38;;;7.70;;
69953;SDS011;57276;51.364;12.376;2022-09-13T20:20:51;16.57;;;7.80;;
69953;SDS011;57276;51.364;12.376;2022-09-13T20:26:57;12.57;;;7.60;;
69953;SDS011;57276;51.364;12.376;2022-09-13T20:32:59;12.57;;;7.30;;
69953;SDS011;57276;51.364;12.376;2022-09-13T20:39:01;15.07;;;8.75;;
69953;SDS011;57276;51.364;12.376;2022-09-13T20:45:04;13.25;;;8.30;;
69953;SDS011;57276;51.364;12.376;2022-09-13T20:51:07;11.87;;;8.03;;
69953;SDS011;57276;51.364;12.376;2022-09-13T20:57:10;10.38;;;7.80;;
69953;SDS011;57276;51.364;12.376;2022-09-13T21:03:12;11.43;;;8.03;;
69953;SDS011;57276;51.364;12.376;2022-09-13T21:09:13;11.60;;;7.80;;
69953;SDS011;57276;51.364;12.376;2022-09-13T21:15:15;11.23;;;7.88;;
69953;SDS011;57276;51.364;12.376;2022-09-13T21:21:17;11.07;;;7.97;;
69953;SDS011;57276;51.364;12.376;2022-09-13T21:27:19;15.10;;;8.80;;
69953;SDS011;57276;51.364;12.376;2022-09-13T21:33:22;12.60;;;8.03;;
69953;SDS011;57276;51.364;12.376;2022-09-13T21:39:24;10.82;;;7.80;;
69953;SDS011;57276;51.364;12.376;2022-09-13T21:45:26;12.02;;;7.80;;
69953;SDS011;57276;51.364;12.376;2022-09-13T21:51:31;12.33;;;8.13;;
69953;SDS011;57276;51.364;12.376;2022-09-13T21:57:36;12.15;;;8.27;;
69953;SDS011;57276;51.364;12.376;2022-09-13T22:03:41;11.03;;;7.90;;
69953;SDS011;57276;51.364;12.376;2022-09-13T22:09:43;12.98;;;8.32;;
69953;SDS011;57276;51.364;12.376;2022-09-13T22:15:44;12.52;;;8.60;;
69953;SDS011;57276;51.364;12.376;2022-09-13T22:21:47;14.13;;;8.20;;
69953;SDS011;57276;51.364;12.376;2022-09-13T22:27:49;13.55;;;8.75;;
69953;SDS011;57276;51.364;12.376;2022-09-13T22:33:50;12.47;;;8.57;;
69953;SDS011;57276;51.364;12.376;2022-09-13T22:39:52;12.90;;;8.75;;
69953;SDS011;57276;51.364;12.376;2022-09-13T22:45:59;11.68;;;7.72;;
69953;SDS011;57276;51.364;12.376;2022-09-13T22:52:01;11.73;;;8.23;;
69953;SDS011;57276;51.364;12.376;2022-09-13T22:58:03;11.55;;;7.93;;
69953;SDS011;57276;51.364;12.376;2022-09-13T23:04:04;11.90;;;8.30;;
69953;SDS011;57276;51.364;12.376;2022-09-13T23:10:07;18.25;;;8.75;;
69953;SDS011;57276;51.364;12.376;2022-09-13T23:16:14;13.57;;;8.95;;
69953;SDS011;57276;51.364;12.376;2022-09-13T23:22:16;15.13;;;9.37;;
69953;SDS011;57276;51.364;12.376;2022-09-13T23:28:18;12.85;;;9.20;;
69953;SDS011;57276;51.364;12.376;2022-09-13T23:34:20;14.67;;;9.60;;
69953;SDS011;57276;51.364;12.376;2022-09-13T23:40:21;13.85;;;9.18;;
69953;SDS011;57276;51.364;12.376;2022-09-13T23:46:23;13.98;;;9.15;;
69953;SDS011;57276;51.364;12.376;2022-09-13T23:52:24;12.77;;;8.93;;
69953;SDS011;57276;51.364;12.376;2022-09-13T23:58:26;12.80;;;9.32;;
